sensor_id;sensor_type;location;lat;lon;timestamp;temperature;humidity
65573;SHT30;52214;50.940;13.996;2022-09-06T00:00:55;15.04;99.99
65573;SHT30;52214;50.940;13.996;2022-09-06T00:03:21;15.05;99.99
65573;SHT30;52214;50.940;13.996;2022-09-06T00:05:47;15.08;99.99
65573;SHT30;52214;50.940;13.996;2022-09-06T00:08:13;15.05;99.99
65573;SHT30;52214;50.940;13.996;2022-09-06T00:10:39;14.98;99.99
65573;SHT30;52214;50.940;13.996;2022-09-06T00:13:08;15.00;99.99
65573;SHT30;52214;50.940;13.996;2022-09-06T00:15:35;14.94;99.99
65573;SHT30;52214;50.940;13.996;2022-09-06T00:18:02;14.90;99.99
65573;SHT30;52214;50.940;13.996;2022-09-06T00:20:29;14.83;99.99
65573;SHT30;52214;50.940;13.996;2022-09-06T00:22:56;14.77;99.99
65573;SHT30;52214;50.940;13.996;2022-09-06T00:25:22;14.79;99.99
65573;SHT30;52214;50.940;13.996;2022-09-06T00:27:52;14.84;99.99
65573;SHT30;52214;50.940;13.996;2022-09-06T00:30:18;14.81;99.99
65573;SHT30;52214;50.940;13.996;2022-09-06T00:32:44;14.72;99.99
65573;SHT30;52214;50.940;13.996;2022-09-06T00:35:09;14.73;99.99
65573;SHT30;52214;50.940;13.996;2022-09-06T00:37:34;14.69;99.99
65573;SHT30;52214;50.940;13.996;2022-09-06T00:40:00;14.65;99.99
65573;SHT30;52214;50.940;13.996;2022-09-06T00:42:26;14.74;99.99
65573;SHT30;52214;50.940;13.996;2022-09-06T00:44:51;14.73;99.99
65573;SHT30;52214;50.940;13.996;2022-09-06T00:47:17;14.73;99.99
65573;SHT30;52214;50.940;13.996;2022-09-06T00:49:46;14.66;99.99
65573;SHT30;52214;50.940;13.996;2022-09-06T00:52:15;14.69;99.99
65573;SHT30;52214;50.940;13.996;2022-09-06T00:54:42;14.67;99.99
65573;SHT30;52214;50.940;13.996;2022-09-06T00:57:08;14.70;99.99
65573;SHT30;52214;50.940;13.996;2022-09-06T00:59:36;14.74;99.99
65573;SHT30;52214;50.940;13.996;2022-09-06T01:02:03;14.76;99.99
65573;SHT30;52214;50.940;13.996;2022-09-06T01:04:30;14.79;99.99
65573;SHT30;52214;50.940;13.996;2022-09-06T01:12:54;14.63;99.99
65573;SHT30;52214;50.940;13.996;2022-09-06T01:15:54;14.56;99.99
65573;SHT30;52214;50.940;13.996;2022-09-06T01:21:42;14.49;99.99
65573;SHT30;52214;50.940;13.996;2022-09-06T01:30:25;14.32;99.99
65573;SHT30;52214;50.940;13.996;2022-09-06T01:33:06;14.35;99.99
65573;SHT30;52214;50.940;13.996;2022-09-06T01:36:01;14.40;99.99
65573;SHT30;52214;50.940;13.996;2022-09-06T01:38:26;14.45;99.99
65573;SHT30;52214;50.940;13.996;2022-09-06T01:40:53;14.47;99.99
65573;SHT30;52214;50.940;13.996;2022-09-06T01:43:25;14.46;99.99
65573;SHT30;52214;50.940;13.996;2022-09-06T01:46:06;14.40;99.99
65573;SHT30;52214;50.940;13.996;2022-09-06T01:51:28;14.26;99.99
65573;SHT30;52214;50.940;13.996;2022-09-06T01:54:20;14.24;99.99
65573;SHT30;52214;50.940;13.996;2022-09-06T01:57:30;14.12;99.99
65573;SHT30;52214;50.940;13.996;2022-09-06T02:00:13;14.15;99.99
65573;SHT30;52214;50.940;13.996;2022-09-06T02:03:05;14.10;99.99
65573;SHT30;52214;50.940;13.996;2022-09-06T02:05:38;14.10;99.99
65573;SHT30;52214;50.940;13.996;2022-09-06T02:08:08;14.01;99.99
65573;SHT30;52214;50.940;13.996;2022-09-06T02:10:59;13.98;99.99
65573;SHT30;52214;50.940;13.996;2022-09-06T02:13:29;14.01;99.99
65573;SHT30;52214;50.940;13.996;2022-09-06T02:16:01;14.00;99.99
65573;SHT30;52214;50.940;13.996;2022-09-06T02:18:32;13.94;99.99
65573;SHT30;52214;50.940;13.996;2022-09-06T02:21:00;13.83;99.99
65573;SHT30;52214;50.940;13.996;2022-09-06T02:23:31;13.84;99.99
65573;SHT30;52214;50.940;13.996;2022-09-06T02:26:04;13.87;99.99
65573;SHT30;52214;50.940;13.996;2022-09-06T02:28:31;13.84;99.99
65573;SHT30;52214;50.940;13.996;2022-09-06T02:31:00;13.84;99.99
65573;SHT30;52214;50.940;13.996;2022-09-06T02:33:29;13.94;99.99
65573;SHT30;52214;50.940;13.996;2022-09-06T02:36:02;13.83;99.99
65573;SHT30;52214;50.940;13.996;2022-09-06T02:38:30;13.81;99.99
65573;SHT30;52214;50.940;13.996;2022-09-06T02:40:58;13.81;99.99
65573;SHT30;52214;50.940;13.996;2022-09-06T02:43:24;13.85;99.99
65573;SHT30;52214;50.940;13.996;2022-09-06T02:45:49;13.90;99.99
65573;SHT30;52214;50.940;13.996;2022-09-06T02:48:15;13.93;99.99
65573;SHT30;52214;50.940;13.996;2022-09-06T02:50:41;13.97;99.99
65573;SHT30;52214;50.940;13.996;2022-09-06T02:53:09;14.00;99.99
65573;SHT30;52214;50.940;13.996;2022-09-06T02:55:35;14.01;99.99
65573;SHT30;52214;50.940;13.996;2022-09-06T02:58:02;14.02;99.99
65573;SHT30;52214;50.940;13.996;2022-09-06T03:00:29;14.02;99.99
65573;SHT30;52214;50.940;13.996;2022-09-06T03:02:55;14.02;99.99
65573;SHT30;52214;50.940;13.996;2022-09-06T03:05:22;14.01;99.99
65573;SHT30;52214;50.940;13.996;2022-09-06T03:07:48;14.00;99.99
65573;SHT30;52214;50.940;13.996;2022-09-06T03:10:14;13.98;99.99
65573;SHT30;52214;50.940;13.996;2022-09-06T03:12:44;13.97;99.99
65573;SHT30;52214;50.940;13.996;2022-09-06T03:15:10;14.00;99.99
65573;SHT30;52214;50.940;13.996;2022-09-06T03:17:36;14.01;99.99
65573;SHT30;52214;50.940;13.996;2022-09-06T03:20:02;13.98;99.99
65573;SHT30;52214;50.940;13.996;2022-09-06T03:22:27;13.97;99.99
65573;SHT30;52214;50.940;13.996;2022-09-06T03:24:53;14.01;99.99
65573;SHT30;52214;50.940;13.996;2022-09-06T03:27:18;14.02;99.99
65573;SHT30;52214;50.940;13.996;2022-09-06T03:29:44;14.02;99.99
65573;SHT30;52214;50.940;13.996;2022-09-06T03:32:10;14.00;99.99
65573;SHT30;52214;50.940;13.996;2022-09-06T03:34:35;13.97;99.99
65573;SHT30;52214;50.940;13.996;2022-09-06T03:37:01;13.90;99.99
65573;SHT30;52214;50.940;13.996;2022-09-06T03:39:26;13.91;99.99
65573;SHT30;52214;50.940;13.996;2022-09-06T03:41:52;13.94;99.99
65573;SHT30;52214;50.940;13.996;2022-09-06T03:44:18;13.80;99.99
65573;SHT30;52214;50.940;13.996;2022-09-06T03:46:43;13.76;99.99
65573;SHT30;52214;50.940;13.996;2022-09-06T03:49:10;13.70;99.99
65573;SHT30;52214;50.940;13.996;2022-09-06T03:51:35;13.73;99.99
65573;SHT30;52214;50.940;13.996;2022-09-06T03:54:01;13.73;99.99
65573;SHT30;52214;50.940;13.996;2022-09-06T03:56:27;13.76;99.99
65573;SHT30;52214;50.940;13.996;2022-09-06T03:58:53;13.77;99.99
65573;SHT30;52214;50.940;13.996;2022-09-06T04:01:18;13.84;99.99
65573;SHT30;52214;50.940;13.996;2022-09-06T04:03:44;13.80;99.99
65573;SHT30;52214;50.940;13.996;2022-09-06T04:06:10;13.80;99.99
65573;SHT30;52214;50.940;13.996;2022-09-06T04:08:36;13.76;99.99
65573;SHT30;52214;50.940;13.996;2022-09-06T04:11:03;13.77;99.99
65573;SHT30;52214;50.940;13.996;2022-09-06T04:13:30;13.76;99.99
65573;SHT30;52214;50.940;13.996;2022-09-06T04:15:56;13.71;99.99
65573;SHT30;52214;50.940;13.996;2022-09-06T04:18:22;13.78;99.99
65573;SHT30;52214;50.940;13.996;2022-09-06T04:20:49;13.70;99.99
65573;SHT30;52214;50.940;13.996;2022-09-06T04:23:16;13.74;99.99
65573;SHT30;52214;50.940;13.996;2022-09-06T04:25:46;13.70;99.99
65573;SHT30;52214;50.940;13.996;2022-09-06T04:28:11;13.71;99.99
65573;SHT30;52214;50.940;13.996;2022-09-06T04:30:37;13.71;99.99
65573;SHT30;52214;50.940;13.996;2022-09-06T04:33:02;13.65;99.99
65573;SHT30;52214;50.940;13.996;2022-09-06T04:35:28;13.66;99.99
65573;SHT30;52214;50.940;13.996;2022-09-06T04:37:53;13.67;99.99
65573;SHT30;52214;50.940;13.996;2022-09-06T04:40:19;13.66;99.99
65573;SHT30;52214;50.940;13.996;2022-09-06T04:42:44;13.70;99.99
65573;SHT30;52214;50.940;13.996;2022-09-06T04:45:10;13.74;99.99
65573;SHT30;52214;50.940;13.996;2022-09-06T04:47:36;13.70;99.99
65573;SHT30;52214;50.940;13.996;2022-09-06T04:50:01;13.77;99.99
65573;SHT30;52214;50.940;13.996;2022-09-06T04:52:27;13.88;99.99
65573;SHT30;52214;50.940;13.996;2022-09-06T04:54:52;13.94;99.83
65573;SHT30;52214;50.940;13.996;2022-09-06T04:57:18;14.01;99.94
65573;SHT30;52214;50.940;13.996;2022-09-06T04:59:43;13.98;99.64
65573;SHT30;52214;50.940;13.996;2022-09-06T05:02:09;14.01;99.62
65573;SHT30;52214;50.940;13.996;2022-09-06T05:04:34;14.02;99.67
65573;SHT30;52214;50.940;13.996;2022-09-06T05:07:04;14.08;99.48
65573;SHT30;52214;50.940;13.996;2022-09-06T05:09:31;14.12;99.22
65573;SHT30;52214;50.940;13.996;2022-09-06T05:11:57;14.21;98.97
65573;SHT30;52214;50.940;13.996;2022-09-06T05:14:23;14.24;98.86
65573;SHT30;52214;50.940;13.996;2022-09-06T05:16:49;14.25;98.70
65573;SHT30;52214;50.940;13.996;2022-09-06T05:19:16;14.28;98.54
65573;SHT30;52214;50.940;13.996;2022-09-06T05:21:41;14.33;98.46
65573;SHT30;52214;50.940;13.996;2022-09-06T05:24:07;14.40;98.35
65573;SHT30;52214;50.940;13.996;2022-09-06T05:26:32;14.40;98.48
65573;SHT30;52214;50.940;13.996;2022-09-06T05:28:58;14.40;98.82
65573;SHT30;52214;50.940;13.996;2022-09-06T05:31:26;14.49;99.09
65573;SHT30;52214;50.940;13.996;2022-09-06T05:33:52;14.57;98.65
65573;SHT30;52214;50.940;13.996;2022-09-06T05:36:18;14.59;99.20
65573;SHT30;52214;50.940;13.996;2022-09-06T05:38:44;14.73;98.04
65573;SHT30;52214;50.940;13.996;2022-09-06T05:41:09;14.98;97.48
65573;SHT30;52214;50.940;13.996;2022-09-06T05:43:34;15.15;96.23
65573;SHT30;52214;50.940;13.996;2022-09-06T05:46:00;15.19;95.80
65573;SHT30;52214;50.940;13.996;2022-09-06T05:48:25;15.34;95.94
65573;SHT30;52214;50.940;13.996;2022-09-06T05:51:04;15.45;95.92
65573;SHT30;52214;50.940;13.996;2022-09-06T05:53:37;15.60;96.49
65573;SHT30;52214;50.940;13.996;2022-09-06T05:56:04;15.62;97.10
65573;SHT30;52214;50.940;13.996;2022-09-06T05:58:30;15.67;96.29
65573;SHT30;52214;50.940;13.996;2022-09-06T06:01:05;15.69;96.27
65573;SHT30;52214;50.940;13.996;2022-09-06T06:03:31;15.70;96.54
65573;SHT30;52214;50.940;13.996;2022-09-06T06:05:57;15.76;96.50
65573;SHT30;52214;50.940;13.996;2022-09-06T06:08:23;15.74;96.58
65573;SHT30;52214;50.940;13.996;2022-09-06T06:10:48;15.82;97.09
65573;SHT30;52214;50.940;13.996;2022-09-06T06:13:14;15.87;96.62
65573;SHT30;52214;50.940;13.996;2022-09-06T06:15:39;15.89;96.16
65573;SHT30;52214;50.940;13.996;2022-09-06T06:18:05;15.87;96.56
65573;SHT30;52214;50.940;13.996;2022-09-06T06:20:30;16.05;96.63
65573;SHT30;52214;50.940;13.996;2022-09-06T06:22:56;16.10;95.81
65573;SHT30;52214;50.940;13.996;2022-09-06T06:25:22;16.30;95.16
65573;SHT30;52214;50.940;13.996;2022-09-06T06:27:51;16.48;95.01
65573;SHT30;52214;50.940;13.996;2022-09-06T06:30:17;16.70;94.87
65573;SHT30;52214;50.940;13.996;2022-09-06T06:32:42;16.91;93.70
65573;SHT30;52214;50.940;13.996;2022-09-06T06:35:08;17.03;93.12
65573;SHT30;52214;50.940;13.996;2022-09-06T06:37:34;16.95;92.58
65573;SHT30;52214;50.940;13.996;2022-09-06T06:40:00;17.07;93.15
65573;SHT30;52214;50.940;13.996;2022-09-06T06:42:25;17.31;92.16
65573;SHT30;52214;50.940;13.996;2022-09-06T06:44:51;17.52;91.32
65573;SHT30;52214;50.940;13.996;2022-09-06T06:47:19;17.89;90.90
65573;SHT30;52214;50.940;13.996;2022-09-06T06:49:45;18.15;90.23
65573;SHT30;52214;50.940;13.996;2022-09-06T06:52:10;18.32;89.51
65573;SHT30;52214;50.940;13.996;2022-09-06T06:54:36;18.42;88.60
65573;SHT30;52214;50.940;13.996;2022-09-06T06:57:03;18.70;85.13
65573;SHT30;52214;50.940;13.996;2022-09-06T06:59:30;18.84;85.17
65573;SHT30;52214;50.940;13.996;2022-09-06T07:01:55;19.03;85.63
65573;SHT30;52214;50.940;13.996;2022-09-06T07:04:21;19.04;85.35
65573;SHT30;52214;50.940;13.996;2022-09-06T07:06:48;19.03;84.57
65573;SHT30;52214;50.940;13.996;2022-09-06T07:09:16;19.11;84.62
65573;SHT30;52214;50.940;13.996;2022-09-06T07:11:42;19.03;84.84
65573;SHT30;52214;50.940;13.996;2022-09-06T07:14:07;19.07;84.47
65573;SHT30;52214;50.940;13.996;2022-09-06T07:16:33;19.18;84.67
65573;SHT30;52214;50.940;13.996;2022-09-06T07:18:59;19.31;83.37
65573;SHT30;52214;50.940;13.996;2022-09-06T07:21:25;19.35;83.50
65573;SHT30;52214;50.940;13.996;2022-09-06T07:24:15;19.51;83.26
65573;SHT30;52214;50.940;13.996;2022-09-06T07:26:40;19.76;82.40
65573;SHT30;52214;50.940;13.996;2022-09-06T07:29:06;20.06;82.02
65573;SHT30;52214;50.940;13.996;2022-09-06T07:31:33;20.55;81.13
65573;SHT30;52214;50.940;13.996;2022-09-06T07:33:59;20.68;79.25
65573;SHT30;52214;50.940;13.996;2022-09-06T07:36:25;20.84;79.42
65573;SHT30;52214;50.940;13.996;2022-09-06T07:38:51;21.08;78.83
65573;SHT30;52214;50.940;13.996;2022-09-06T07:41:17;21.48;77.49
65573;SHT30;52214;50.940;13.996;2022-09-06T07:43:44;21.37;76.21
65573;SHT30;52214;50.940;13.996;2022-09-06T07:46:14;21.28;77.06
65573;SHT30;52214;50.940;13.996;2022-09-06T07:48:41;21.21;76.32
65573;SHT30;52214;50.940;13.996;2022-09-06T07:51:10;21.15;78.09
65573;SHT30;52214;50.940;13.996;2022-09-06T07:53:37;21.21;76.39
65573;SHT30;52214;50.940;13.996;2022-09-06T07:56:05;21.04;77.44
65573;SHT30;52214;50.940;13.996;2022-09-06T07:58:32;21.06;77.61
65573;SHT30;52214;50.940;13.996;2022-09-06T08:03:38;20.93;76.92
65573;SHT30;52214;50.940;13.996;2022-09-06T08:06:04;20.76;78.02
65573;SHT30;52214;50.940;13.996;2022-09-06T08:08:29;20.89;77.69
65573;SHT30;52214;50.940;13.996;2022-09-06T08:10:55;20.87;78.88
65573;SHT30;52214;50.940;13.996;2022-09-06T08:13:21;20.89;77.89
65573;SHT30;52214;50.940;13.996;2022-09-06T08:15:46;20.86;78.37
65573;SHT30;52214;50.940;13.996;2022-09-06T08:18:12;20.89;77.34
65573;SHT30;52214;50.940;13.996;2022-09-06T08:20:37;21.03;77.58
65573;SHT30;52214;50.940;13.996;2022-09-06T08:23:08;21.12;77.30
65573;SHT30;52214;50.940;13.996;2022-09-06T08:25:34;21.28;76.08
65573;SHT30;52214;50.940;13.996;2022-09-06T08:27:59;21.38;75.52
65573;SHT30;52214;50.940;13.996;2022-09-06T08:30:25;21.49;76.23
65573;SHT30;52214;50.940;13.996;2022-09-06T08:32:52;21.54;74.54
65573;SHT30;52214;50.940;13.996;2022-09-06T08:35:17;21.62;75.53
65573;SHT30;52214;50.940;13.996;2022-09-06T08:37:43;21.73;75.00
65573;SHT30;52214;50.940;13.996;2022-09-06T08:40:08;21.73;74.78
65573;SHT30;52214;50.940;13.996;2022-09-06T08:42:37;21.80;74.00
65573;SHT30;52214;50.940;13.996;2022-09-06T08:45:04;21.82;72.59
65573;SHT30;52214;50.940;13.996;2022-09-06T08:47:34;22.16;73.07
65573;SHT30;52214;50.940;13.996;2022-09-06T08:50:02;22.07;73.10
65573;SHT30;52214;50.940;13.996;2022-09-06T08:52:44;21.94;72.73
65573;SHT30;52214;50.940;13.996;2022-09-06T08:55:27;22.22;71.81
65573;SHT30;52214;50.940;13.996;2022-09-06T08:58:10;22.24;71.81
65573;SHT30;52214;50.940;13.996;2022-09-06T09:00:41;22.58;72.01
65573;SHT30;52214;50.940;13.996;2022-09-06T09:03:13;22.69;70.10
65573;SHT30;52214;50.940;13.996;2022-09-06T09:05:41;22.99;68.16
65573;SHT30;52214;50.940;13.996;2022-09-06T09:10:46;22.95;68.41
65573;SHT30;52214;50.940;13.996;2022-09-06T09:13:26;22.98;68.50
65573;SHT30;52214;50.940;13.996;2022-09-06T09:15:53;23.31;66.44
65573;SHT30;52214;50.940;13.996;2022-09-06T09:18:24;23.37;65.20
65573;SHT30;52214;50.940;13.996;2022-09-06T09:20:51;23.37;64.73
65573;SHT30;52214;50.940;13.996;2022-09-06T09:23:17;23.62;65.11
65573;SHT30;52214;50.940;13.996;2022-09-06T09:25:44;23.99;61.66
65573;SHT30;52214;50.940;13.996;2022-09-06T09:28:17;24.92;59.45
65573;SHT30;52214;50.940;13.996;2022-09-06T09:30:46;25.33;59.43
65573;SHT30;52214;50.940;13.996;2022-09-06T09:33:38;25.40;58.50
65573;SHT30;52214;50.940;13.996;2022-09-06T09:36:07;25.65;58.90
65573;SHT30;52214;50.940;13.996;2022-09-06T09:38:40;25.90;58.63
65573;SHT30;52214;50.940;13.996;2022-09-06T09:41:07;26.02;58.97
65573;SHT30;52214;50.940;13.996;2022-09-06T09:43:40;25.47;57.59
65573;SHT30;52214;50.940;13.996;2022-09-06T09:46:28;25.09;60.36
65573;SHT30;52214;50.940;13.996;2022-09-06T09:49:12;25.31;58.45
65573;SHT30;52214;50.940;13.996;2022-09-06T09:51:42;25.23;61.57
65573;SHT30;52214;50.940;13.996;2022-09-06T09:54:11;25.19;62.60
65573;SHT30;52214;50.940;13.996;2022-09-06T09:56:50;25.17;61.19
65573;SHT30;52214;50.940;13.996;2022-09-06T09:59:29;25.50;61.74
65573;SHT30;52214;50.940;13.996;2022-09-06T10:02:00;26.06;61.28
65573;SHT30;52214;50.940;13.996;2022-09-06T10:04:34;26.07;60.02
65573;SHT30;52214;50.940;13.996;2022-09-06T10:07:15;26.39;57.67
65573;SHT30;52214;50.940;13.996;2022-09-06T10:09:46;26.34;58.85
65573;SHT30;52214;50.940;13.996;2022-09-06T10:12:33;26.19;59.08
65573;SHT30;52214;50.940;13.996;2022-09-06T10:15:00;25.99;58.09
65573;SHT30;52214;50.940;13.996;2022-09-06T10:19:51;25.70;62.59
65573;SHT30;52214;50.940;13.996;2022-09-06T10:22:34;25.70;61.57
65573;SHT30;52214;50.940;13.996;2022-09-06T10:27:27;25.58;60.66
65573;SHT30;52214;50.940;13.996;2022-09-06T10:30:06;25.51;61.74
65573;SHT30;52214;50.940;13.996;2022-09-06T10:33:04;24.73;63.96
65573;SHT30;52214;50.940;13.996;2022-09-06T10:35:36;25.03;64.58
65573;SHT30;52214;50.940;13.996;2022-09-06T10:41:24;24.92;64.34
65573;SHT30;52214;50.940;13.996;2022-09-06T10:47:09;25.57;59.94
65573;SHT30;52214;50.940;13.996;2022-09-06T10:49:36;25.81;60.34
65573;SHT30;52214;50.940;13.996;2022-09-06T10:52:04;25.81;58.44
65573;SHT30;52214;50.940;13.996;2022-09-06T10:54:32;25.75;61.79
65573;SHT30;52214;50.940;13.996;2022-09-06T10:57:02;26.00;59.25
65573;SHT30;52214;50.940;13.996;2022-09-06T10:59:38;26.16;60.12
65573;SHT30;52214;50.940;13.996;2022-09-06T11:04:45;25.70;61.47
65573;SHT30;52214;50.940;13.996;2022-09-06T11:07:29;26.70;59.57
65573;SHT30;52214;50.940;13.996;2022-09-06T11:10:17;27.61;59.07
65573;SHT30;52214;50.940;13.996;2022-09-06T11:12:58;27.12;58.66
65573;SHT30;52214;50.940;13.996;2022-09-06T11:15:30;27.00;58.62
65573;SHT30;52214;50.940;13.996;2022-09-06T11:18:08;26.64;59.57
65573;SHT30;52214;50.940;13.996;2022-09-06T11:20:41;26.89;58.62
65573;SHT30;52214;50.940;13.996;2022-09-06T11:23:26;27.05;55.66
65573;SHT30;52214;50.940;13.996;2022-09-06T11:26:08;26.95;54.75
65573;SHT30;52214;50.940;13.996;2022-09-06T11:28:43;28.56;55.81
65573;SHT30;52214;50.940;13.996;2022-09-06T11:31:20;28.75;54.07
65573;SHT30;52214;50.940;13.996;2022-09-06T11:33:46;28.49;55.03
65573;SHT30;52214;50.940;13.996;2022-09-06T11:36:32;28.49;52.33
65573;SHT30;52214;50.940;13.996;2022-09-06T11:39:00;29.05;52.23
65573;SHT30;52214;50.940;13.996;2022-09-06T11:41:29;30.01;52.67
65573;SHT30;52214;50.940;13.996;2022-09-06T11:43:56;29.77;51.64
65573;SHT30;52214;50.940;13.996;2022-09-06T11:51:50;29.73;50.22
65573;SHT30;52214;50.940;13.996;2022-09-06T11:56:57;31.29;49.92
65573;SHT30;52214;50.940;13.996;2022-09-06T12:07:27;35.64;39.03
65573;SHT30;52214;50.940;13.996;2022-09-06T12:09:53;34.23;41.56
65573;SHT30;52214;50.940;13.996;2022-09-06T12:12:39;34.71;40.39
65573;SHT30;52214;50.940;13.996;2022-09-06T12:15:23;35.71;41.96
65573;SHT30;52214;50.940;13.996;2022-09-06T12:17:49;34.89;42.28
65573;SHT30;52214;50.940;13.996;2022-09-06T12:23:39;32.51;42.82
65573;SHT30;52214;50.940;13.996;2022-09-06T12:26:09;31.56;44.06
65573;SHT30;52214;50.940;13.996;2022-09-06T12:28:45;32.35;44.22
65573;SHT30;52214;50.940;13.996;2022-09-06T12:31:38;33.34;42.38
65573;SHT30;52214;50.940;13.996;2022-09-06T12:34:13;33.99;40.20
65573;SHT30;52214;50.940;13.996;2022-09-06T12:36:56;33.61;44.25
65573;SHT30;52214;50.940;13.996;2022-09-06T12:39:22;33.99;41.43
65573;SHT30;52214;50.940;13.996;2022-09-06T12:41:54;36.43;37.81
65573;SHT30;52214;50.940;13.996;2022-09-06T12:44:47;35.03;40.09
65573;SHT30;52214;50.940;13.996;2022-09-06T12:47:30;31.62;44.21
65573;SHT30;52214;50.940;13.996;2022-09-06T12:50:25;30.18;46.89
65573;SHT30;52214;50.940;13.996;2022-09-06T12:52:53;28.70;49.08
65573;SHT30;52214;50.940;13.996;2022-09-06T12:55:25;28.56;49.59
65573;SHT30;52214;50.940;13.996;2022-09-06T12:57:54;28.43;50.12
65573;SHT30;52214;50.940;13.996;2022-09-06T13:00:22;27.78;52.22
65573;SHT30;52214;50.940;13.996;2022-09-06T13:05:23;26.61;54.42
65573;SHT30;52214;50.940;13.996;2022-09-06T13:07:52;25.98;55.48
65573;SHT30;52214;50.940;13.996;2022-09-06T13:10:22;25.54;56.63
65573;SHT30;52214;50.940;13.996;2022-09-06T13:12:52;25.34;57.96
65573;SHT30;52214;50.940;13.996;2022-09-06T13:15:26;25.10;58.43
65573;SHT30;52214;50.940;13.996;2022-09-06T13:18:44;24.78;59.64
65573;SHT30;52214;50.940;13.996;2022-09-06T13:21:06;24.48;60.48
65573;SHT30;52214;50.940;13.996;2022-09-06T13:23:40;24.30;60.51
65573;SHT30;52214;50.940;13.996;2022-09-06T13:26:06;24.26;60.67
65573;SHT30;52214;50.940;13.996;2022-09-06T13:28:33;24.10;61.41
65573;SHT30;52214;50.940;13.996;2022-09-06T13:33:42;23.89;61.66
65573;SHT30;52214;50.940;13.996;2022-09-06T13:41:05;23.59;62.75
65573;SHT30;52214;50.940;13.996;2022-09-06T13:43:42;23.50;63.05
65573;SHT30;52214;50.940;13.996;2022-09-06T13:46:09;23.40;63.38
65573;SHT30;52214;50.940;13.996;2022-09-06T13:48:36;23.38;63.13
65573;SHT30;52214;50.940;13.996;2022-09-06T13:51:06;23.28;63.49
65573;SHT30;52214;50.940;13.996;2022-09-06T13:53:33;23.23;63.30
65573;SHT30;52214;50.940;13.996;2022-09-06T13:55:58;23.17;64.14
65573;SHT30;52214;50.940;13.996;2022-09-06T13:58:24;23.14;63.59
65573;SHT30;52214;50.940;13.996;2022-09-06T14:00:52;23.10;64.49
65573;SHT30;52214;50.940;13.996;2022-09-06T14:03:23;22.90;66.24
65573;SHT30;52214;50.940;13.996;2022-09-06T14:05:50;22.82;68.59
65573;SHT30;52214;50.940;13.996;2022-09-06T14:08:16;22.35;71.69
65573;SHT30;52214;50.940;13.996;2022-09-06T14:10:42;22.17;74.27
65573;SHT30;52214;50.940;13.996;2022-09-06T14:13:08;22.01;74.34
65573;SHT30;52214;50.940;13.996;2022-09-06T14:15:34;21.28;81.76
65573;SHT30;52214;50.940;13.996;2022-09-06T14:18:00;20.73;81.71
65573;SHT30;52214;50.940;13.996;2022-09-06T14:20:25;20.14;84.89
65573;SHT30;52214;50.940;13.996;2022-09-06T14:22:51;19.76;89.45
65573;SHT30;52214;50.940;13.996;2022-09-06T14:25:16;19.55;91.48
65573;SHT30;52214;50.940;13.996;2022-09-06T14:27:42;19.42;92.40
65573;SHT30;52214;50.940;13.996;2022-09-06T14:30:08;19.18;91.64
65573;SHT30;52214;50.940;13.996;2022-09-06T14:32:33;19.27;93.88
65573;SHT30;52214;50.940;13.996;2022-09-06T14:34:59;19.22;93.29
65573;SHT30;52214;50.940;13.996;2022-09-06T14:37:26;19.25;94.87
65573;SHT30;52214;50.940;13.996;2022-09-06T14:39:52;19.15;94.74
65573;SHT30;52214;50.940;13.996;2022-09-06T14:42:18;19.14;94.10
65573;SHT30;52214;50.940;13.996;2022-09-06T14:44:43;19.20;93.60
65573;SHT30;52214;50.940;13.996;2022-09-06T14:47:09;19.07;92.90
65573;SHT30;52214;50.940;13.996;2022-09-06T14:49:36;19.12;91.48
65573;SHT30;52214;50.940;13.996;2022-09-06T14:52:02;19.17;91.63
65573;SHT30;52214;50.940;13.996;2022-09-06T14:54:27;19.07;92.53
65573;SHT30;52214;50.940;13.996;2022-09-06T14:56:53;19.03;93.29
65573;SHT30;52214;50.940;13.996;2022-09-06T14:59:18;19.27;95.42
65573;SHT30;52214;50.940;13.996;2022-09-06T15:01:44;19.21;96.13
65573;SHT30;52214;50.940;13.996;2022-09-06T15:04:10;19.24;95.27
65573;SHT30;52214;50.940;13.996;2022-09-06T15:06:37;19.14;95.51
65573;SHT30;52214;50.940;13.996;2022-09-06T15:09:04;19.10;95.82
65573;SHT30;52214;50.940;13.996;2022-09-06T15:11:34;19.15;96.32
65573;SHT30;52214;50.940;13.996;2022-09-06T15:14:05;19.10;96.48
65573;SHT30;52214;50.940;13.996;2022-09-06T15:16:32;18.91;97.21
65573;SHT30;52214;50.940;13.996;2022-09-06T15:18:58;18.82;97.12
65573;SHT30;52214;50.940;13.996;2022-09-06T15:21:24;18.65;97.25
65573;SHT30;52214;50.940;13.996;2022-09-06T15:23:53;18.65;97.81
65573;SHT30;52214;50.940;13.996;2022-09-06T15:26:19;18.74;98.52
65573;SHT30;52214;50.940;13.996;2022-09-06T15:28:45;18.87;98.28
65573;SHT30;52214;50.940;13.996;2022-09-06T15:31:11;18.99;98.82
65573;SHT30;52214;50.940;13.996;2022-09-06T15:33:38;19.06;99.40
65573;SHT30;52214;50.940;13.996;2022-09-06T15:36:05;19.03;99.36
65573;SHT30;52214;50.940;13.996;2022-09-06T15:38:37;19.01;98.83
65573;SHT30;52214;50.940;13.996;2022-09-06T15:41:07;18.91;98.01
65573;SHT30;52214;50.940;13.996;2022-09-06T15:43:34;19.04;98.30
65573;SHT30;52214;50.940;13.996;2022-09-06T15:46:00;18.86;98.77
65573;SHT30;52214;50.940;13.996;2022-09-06T15:48:26;18.79;98.75
65573;SHT30;52214;50.940;13.996;2022-09-06T15:50:51;18.89;98.77
65573;SHT30;52214;50.940;13.996;2022-09-06T15:53:18;18.84;99.14
65573;SHT30;52214;50.940;13.996;2022-09-06T15:55:43;18.91;99.22
65573;SHT30;52214;50.940;13.996;2022-09-06T15:58:24;18.80;98.50
65573;SHT30;52214;50.940;13.996;2022-09-06T16:01:17;18.79;98.98
65573;SHT30;52214;50.940;13.996;2022-09-06T16:03:48;18.73;98.69
65573;SHT30;52214;50.940;13.996;2022-09-06T16:06:19;18.65;98.57
65573;SHT30;52214;50.940;13.996;2022-09-06T16:08:48;18.80;98.84
65573;SHT30;52214;50.940;13.996;2022-09-06T16:11:15;18.89;98.89
65573;SHT30;52214;50.940;13.996;2022-09-06T16:13:42;18.83;99.27
65573;SHT30;52214;50.940;13.996;2022-09-06T16:16:10;18.76;99.02
65573;SHT30;52214;50.940;13.996;2022-09-06T16:18:38;18.69;99.07
65573;SHT30;52214;50.940;13.996;2022-09-06T16:23:34;18.67;98.98
65573;SHT30;52214;50.940;13.996;2022-09-06T16:26:00;18.63;98.98
65573;SHT30;52214;50.940;13.996;2022-09-06T16:28:30;18.60;99.01
65573;SHT30;52214;50.940;13.996;2022-09-06T16:31:03;18.56;99.07
65573;SHT30;52214;50.940;13.996;2022-09-06T16:33:30;18.56;99.12
65573;SHT30;52214;50.940;13.996;2022-09-06T16:36:00;18.48;99.85
65573;SHT30;52214;50.940;13.996;2022-09-06T16:38:30;18.49;99.50